sensor_id;sensor_type;location;lat;lon;timestamp;P1;durP1;ratioP1;P2;durP2;ratioP2
21825;SDS011;11075;47.944;11.776;2023-03-01T00:01:01;27.20;;;14.27;;
21825;SDS011;11075;47.944;11.776;2023-03-01T00:03:33;28.73;;;14.37;;
21825;SDS011;11075;47.944;11.776;2023-03-01T00:06:00;27.83;;;14.70;;
21825;SDS011;11075;47.944;11.776;2023-03-01T00:08:28;28.17;;;16.03;;
21825;SDS011;11075;47.944;11.776;2023-03-01T00:11:03;29.57;;;15.17;;
21825;SDS011;11075;47.944;11.776;2023-03-01T00:13:30;29.57;;;16.30;;
21825;SDS011;11075;47.944;11.776;2023-03-01T00:15:57;28.17;;;15.00;;
21825;SDS011;11075;47.944;11.776;2023-03-01T00:18:24;25.67;;;15.43;;
21825;SDS011;11075;47.944;11.776;2023-03-01T00:20:52;29.13;;;14.87;;
21825;SDS011;11075;47.944;11.776;2023-03-01T00:23:20;29.50;;;15.57;;
21825;SDS011;11075;47.944;11.776;2023-03-01T00:25:48;29.43;;;15.67;;
21825;SDS011;11075;47.944;11.776;2023-03-01T00:28:15;30.83;;;15.77;;
21825;SDS011;11075;47.944;11.776;2023-03-01T00:30:43;29.47;;;16.00;;
21825;SDS011;11075;47.944;11.776;2023-03-01T00:33:10;24.07;;;13.53;;
21825;SDS011;11075;47.944;11.776;2023-03-01T00:35:37;24.33;;;13.47;;
21825;SDS011;11075;47.944;11.776;2023-03-01T00:38:04;30.77;;;15.77;;
21825;SDS011;11075;47.944;11.776;2023-03-01T00:40:32;35.67;;;17.03;;
21825;SDS011;11075;47.944;11.776;2023-03-01T00:43:01;30.30;;;16.13;;
21825;SDS011;11075;47.944;11.776;2023-03-01T00:45:28;27.33;;;13.90;;
21825;SDS011;11075;47.944;11.776;2023-03-01T00:47:57;30.50;;;14.13;;
21825;SDS011;11075;47.944;11.776;2023-03-01T00:50:24;27.73;;;14.37;;
21825;SDS011;11075;47.944;11.776;2023-03-01T00:52:52;27.13;;;15.60;;
21825;SDS011;11075;47.944;11.776;2023-03-01T00:55:20;31.37;;;13.67;;
21825;SDS011;11075;47.944;11.776;2023-03-01T00:57:48;28.67;;;15.40;;
21825;SDS011;11075;47.944;11.776;2023-03-01T01:00:15;28.83;;;15.97;;
21825;SDS011;11075;47.944;11.776;2023-03-01T01:02:42;28.90;;;15.53;;
21825;SDS011;11075;47.944;11.776;2023-03-01T01:05:09;30.30;;;16.33;;
21825;SDS011;11075;47.944;11.776;2023-03-01T01:07:37;27.17;;;15.27;;
21825;SDS011;11075;47.944;11.776;2023-03-01T01:10:04;27.37;;;14.90;;
21825;SDS011;11075;47.944;11.776;2023-03-01T01:12:32;28.80;;;15.43;;
21825;SDS011;11075;47.944;11.776;2023-03-01T01:14:59;32.20;;;16.53;;
21825;SDS011;11075;47.944;11.776;2023-03-01T01:17:25;30.03;;;14.87;;
21825;SDS011;11075;47.944;11.776;2023-03-01T01:19:52;32.23;;;16.70;;
21825;SDS011;11075;47.944;11.776;2023-03-01T01:22:19;31.87;;;15.53;;
21825;SDS011;11075;47.944;11.776;2023-03-01T01:24:46;29.33;;;15.33;;
21825;SDS011;11075;47.944;11.776;2023-03-01T01:27:13;30.73;;;15.77;;
21825;SDS011;11075;47.944;11.776;2023-03-01T01:29:39;28.13;;;15.23;;
21825;SDS011;11075;47.944;11.776;2023-03-01T01:32:08;31.07;;;16.50;;
21825;SDS011;11075;47.944;11.776;2023-03-01T01:34:35;27.50;;;15.47;;
21825;SDS011;11075;47.944;11.776;2023-03-01T01:37:02;34.80;;;16.23;;
21825;SDS011;11075;47.944;11.776;2023-03-01T01:39:29;28.77;;;15.80;;
21825;SDS011;11075;47.944;11.776;2023-03-01T01:41:56;28.27;;;15.87;;
21825;SDS011;11075;47.944;11.776;2023-03-01T01:44:24;28.80;;;16.37;;
21825;SDS011;11075;47.944;11.776;2023-03-01T01:46:54;32.07;;;16.20;;
21825;SDS011;11075;47.944;11.776;2023-03-01T01:49:35;27.60;;;15.93;;
21825;SDS011;11075;47.944;11.776;2023-03-01T01:54:42;32.90;;;17.37;;
21825;SDS011;11075;47.944;11.776;2023-03-01T01:57:15;30.03;;;15.73;;
21825;SDS011;11075;47.944;11.776;2023-03-01T01:59:47;27.30;;;14.83;;
21825;SDS011;11075;47.944;11.776;2023-03-01T02:02:18;31.83;;;14.57;;
21825;SDS011;11075;47.944;11.776;2023-03-01T02:04:47;28.70;;;15.90;;
21825;SDS011;11075;47.944;11.776;2023-03-01T02:07:18;31.00;;;14.93;;
21825;SDS011;11075;47.944;11.776;2023-03-01T02:09:49;29.17;;;16.07;;
21825;SDS011;11075;47.944;11.776;2023-03-01T02:12:20;27.77;;;14.70;;
21825;SDS011;11075;47.944;11.776;2023-03-01T02:14:50;30.90;;;16.43;;
21825;SDS011;11075;47.944;11.776;2023-03-01T02:17:17;30.70;;;15.90;;
21825;SDS011;11075;47.944;11.776;2023-03-01T02:19:52;26.57;;;15.20;;
21825;SDS011;11075;47.944;11.776;2023-03-01T02:22:43;33.47;;;16.17;;
21825;SDS011;11075;47.944;11.776;2023-03-01T02:25:23;31.23;;;16.00;;
21825;SDS011;11075;47.944;11.776;2023-03-01T02:30:43;32.60;;;16.00;;
21825;SDS011;11075;47.944;11.776;2023-03-01T02:33:31;27.63;;;14.97;;
21825;SDS011;11075;47.944;11.776;2023-03-01T02:36:00;29.67;;;15.17;;
21825;SDS011;11075;47.944;11.776;2023-03-01T02:38:31;29.53;;;15.87;;
21825;SDS011;11075;47.944;11.776;2023-03-01T02:40:58;28.77;;;15.87;;
21825;SDS011;11075;47.944;11.776;2023-03-01T02:43:27;31.93;;;16.33;;
21825;SDS011;11075;47.944;11.776;2023-03-01T02:45:58;28.30;;;15.80;;
21825;SDS011;11075;47.944;11.776;2023-03-01T02:48:38;26.13;;;15.50;;
21825;SDS011;11075;47.944;11.776;2023-03-01T02:51:14;30.60;;;16.00;;
21825;SDS011;11075;47.944;11.776;2023-03-01T02:56:42;27.83;;;14.23;;
21825;SDS011;11075;47.944;11.776;2023-03-01T02:59:18;31.13;;;16.23;;
21825;SDS011;11075;47.944;11.776;2023-03-01T03:01:47;28.87;;;16.30;;
21825;SDS011;11075;47.944;11.776;2023-03-01T03:04:16;32.73;;;17.07;;
21825;SDS011;11075;47.944;11.776;2023-03-01T03:06:49;34.40;;;17.00;;
21825;SDS011;11075;47.944;11.776;2023-03-01T03:09:17;28.47;;;15.90;;
21825;SDS011;11075;47.944;11.776;2023-03-01T03:11:45;29.70;;;16.87;;
21825;SDS011;11075;47.944;11.776;2023-03-01T03:14:13;35.43;;;17.10;;
21825;SDS011;11075;47.944;11.776;2023-03-01T03:16:45;31.33;;;17.00;;
21825;SDS011;11075;47.944;11.776;2023-03-01T03:19:14;27.20;;;14.93;;
21825;SDS011;11075;47.944;11.776;2023-03-01T03:21:43;28.93;;;16.47;;
21825;SDS011;11075;47.944;11.776;2023-03-01T03:24:10;30.63;;;16.07;;
21825;SDS011;11075;47.944;11.776;2023-03-01T03:26:37;30.03;;;16.23;;
21825;SDS011;11075;47.944;11.776;2023-03-01T03:29:03;32.77;;;17.33;;
21825;SDS011;11075;47.944;11.776;2023-03-01T03:31:30;33.70;;;17.10;;
21825;SDS011;11075;47.944;11.776;2023-03-01T03:33:57;28.57;;;16.43;;
21825;SDS011;11075;47.944;11.776;2023-03-01T03:36:25;30.83;;;17.00;;
21825;SDS011;11075;47.944;11.776;2023-03-01T03:38:52;29.50;;;15.50;;
21825;SDS011;11075;47.944;11.776;2023-03-01T03:41:19;27.83;;;15.77;;
21825;SDS011;11075;47.944;11.776;2023-03-01T03:43:46;29.00;;;15.80;;
21825;SDS011;11075;47.944;11.776;2023-03-01T03:46:13;29.97;;;16.93;;
21825;SDS011;11075;47.944;11.776;2023-03-01T03:48:41;32.10;;;16.83;;
21825;SDS011;11075;47.944;11.776;2023-03-01T03:51:11;32.33;;;17.53;;
21825;SDS011;11075;47.944;11.776;2023-03-01T03:53:40;30.00;;;16.20;;
21825;SDS011;11075;47.944;11.776;2023-03-01T03:56:07;27.87;;;15.43;;
21825;SDS011;11075;47.944;11.776;2023-03-01T03:58:34;28.90;;;17.13;;
21825;SDS011;11075;47.944;11.776;2023-03-01T04:01:02;28.07;;;14.83;;
21825;SDS011;11075;47.944;11.776;2023-03-01T04:03:30;34.67;;;17.10;;
21825;SDS011;11075;47.944;11.776;2023-03-01T04:05:59;31.20;;;16.20;;
21825;SDS011;11075;47.944;11.776;2023-03-01T04:08:26;31.80;;;16.73;;
21825;SDS011;11075;47.944;11.776;2023-03-01T04:10:59;31.43;;;16.57;;
21825;SDS011;11075;47.944;11.776;2023-03-01T04:13:47;36.37;;;15.97;;
21825;SDS011;11075;47.944;11.776;2023-03-01T04:16:15;27.07;;;14.30;;
21825;SDS011;11075;47.944;11.776;2023-03-01T04:18:42;29.63;;;15.73;;
21825;SDS011;11075;47.944;11.776;2023-03-01T04:21:09;35.00;;;17.33;;
21825;SDS011;11075;47.944;11.776;2023-03-01T04:23:37;29.40;;;15.67;;
21825;SDS011;11075;47.944;11.776;2023-03-01T04:26:05;32.53;;;16.27;;
21825;SDS011;11075;47.944;11.776;2023-03-01T04:28:33;32.13;;;16.97;;
21825;SDS011;11075;47.944;11.776;2023-03-01T04:31:23;32.37;;;17.20;;
21825;SDS011;11075;47.944;11.776;2023-03-01T04:33:50;33.67;;;17.07;;
21825;SDS011;11075;47.944;11.776;2023-03-01T04:36:20;33.33;;;17.03;;
21825;SDS011;11075;47.944;11.776;2023-03-01T04:38:49;33.23;;;16.67;;
21825;SDS011;11075;47.944;11.776;2023-03-01T04:41:17;31.73;;;18.33;;
21825;SDS011;11075;47.944;11.776;2023-03-01T04:43:44;28.73;;;15.73;;
21825;SDS011;11075;47.944;11.776;2023-03-01T04:46:12;29.20;;;15.50;;
21825;SDS011;11075;47.944;11.776;2023-03-01T04:48:42;29.80;;;16.83;;
21825;SDS011;11075;47.944;11.776;2023-03-01T04:51:11;28.57;;;15.57;;
21825;SDS011;11075;47.944;11.776;2023-03-01T04:53:41;32.30;;;17.17;;
21825;SDS011;11075;47.944;11.776;2023-03-01T04:56:09;29.17;;;16.10;;
21825;SDS011;11075;47.944;11.776;2023-03-01T04:58:37;33.93;;;17.13;;
21825;SDS011;11075;47.944;11.776;2023-03-01T05:01:13;33.73;;;16.70;;
21825;SDS011;11075;47.944;11.776;2023-03-01T05:03:46;34.27;;;16.03;;
21825;SDS011;11075;47.944;11.776;2023-03-01T05:06:15;31.00;;;16.40;;
21825;SDS011;11075;47.944;11.776;2023-03-01T05:08:43;32.97;;;16.60;;
21825;SDS011;11075;47.944;11.776;2023-03-01T05:11:10;34.73;;;16.60;;
21825;SDS011;11075;47.944;11.776;2023-03-01T05:13:39;31.10;;;17.73;;
21825;SDS011;11075;47.944;11.776;2023-03-01T05:16:07;34.07;;;16.03;;
21825;SDS011;11075;47.944;11.776;2023-03-01T05:18:39;33.83;;;17.63;;
21825;SDS011;11075;47.944;11.776;2023-03-01T05:21:08;33.53;;;16.60;;
21825;SDS011;11075;47.944;11.776;2023-03-01T05:23:36;33.07;;;16.23;;
21825;SDS011;11075;47.944;11.776;2023-03-01T05:26:04;32.07;;;17.17;;
21825;SDS011;11075;47.944;11.776;2023-03-01T05:28:36;34.63;;;16.77;;
21825;SDS011;11075;47.944;11.776;2023-03-01T05:31:04;32.23;;;17.73;;
21825;SDS011;11075;47.944;11.776;2023-03-01T05:33:36;34.13;;;18.00;;
21825;SDS011;11075;47.944;11.776;2023-03-01T05:36:05;31.93;;;17.87;;
21825;SDS011;11075;47.944;11.776;2023-03-01T05:38:33;37.97;;;19.07;;
21825;SDS011;11075;47.944;11.776;2023-03-01T05:41:00;26.70;;;14.17;;
21825;SDS011;11075;47.944;11.776;2023-03-01T05:43:30;31.60;;;17.33;;
21825;SDS011;11075;47.944;11.776;2023-03-01T05:46:00;33.03;;;17.00;;
21825;SDS011;11075;47.944;11.776;2023-03-01T05:48:28;26.33;;;13.97;;
21825;SDS011;11075;47.944;11.776;2023-03-01T05:50:58;30.77;;;17.30;;
21825;SDS011;11075;47.944;11.776;2023-03-01T05:53:26;33.93;;;17.17;;
21825;SDS011;11075;47.944;11.776;2023-03-01T05:55:53;31.63;;;17.57;;
21825;SDS011;11075;47.944;11.776;2023-03-01T05:58:20;31.57;;;17.97;;
21825;SDS011;11075;47.944;11.776;2023-03-01T06:00:48;29.10;;;16.17;;
21825;SDS011;11075;47.944;11.776;2023-03-01T06:03:16;30.70;;;14.93;;
21825;SDS011;11075;47.944;11.776;2023-03-01T06:05:44;37.73;;;17.13;;
21825;SDS011;11075;47.944;11.776;2023-03-01T06:08:11;36.57;;;18.33;;
21825;SDS011;11075;47.944;11.776;2023-03-01T06:10:38;31.47;;;16.93;;
21825;SDS011;11075;47.944;11.776;2023-03-01T06:13:05;30.67;;;16.07;;
21825;SDS011;11075;47.944;11.776;2023-03-01T06:15:33;31.67;;;16.67;;
21825;SDS011;11075;47.944;11.776;2023-03-01T06:17:59;34.40;;;15.80;;
21825;SDS011;11075;47.944;11.776;2023-03-01T06:20:27;34.67;;;17.57;;
21825;SDS011;11075;47.944;11.776;2023-03-01T06:22:55;36.83;;;17.70;;
21825;SDS011;11075;47.944;11.776;2023-03-01T06:25:22;35.27;;;17.83;;
21825;SDS011;11075;47.944;11.776;2023-03-01T06:27:51;35.97;;;16.60;;
21825;SDS011;11075;47.944;11.776;2023-03-01T06:30:22;32.63;;;17.87;;
21825;SDS011;11075;47.944;11.776;2023-03-01T06:32:49;29.03;;;15.70;;
21825;SDS011;11075;47.944;11.776;2023-03-01T06:35:17;30.93;;;16.70;;
21825;SDS011;11075;47.944;11.776;2023-03-01T06:37:45;33.37;;;18.30;;
21825;SDS011;11075;47.944;11.776;2023-03-01T06:40:13;33.43;;;17.03;;
21825;SDS011;11075;47.944;11.776;2023-03-01T06:42:41;34.63;;;19.40;;
21825;SDS011;11075;47.944;11.776;2023-03-01T06:45:09;41.77;;;18.93;;
21825;SDS011;11075;47.944;11.776;2023-03-01T06:47:36;34.10;;;17.03;;
21825;SDS011;11075;47.944;11.776;2023-03-01T06:50:03;36.53;;;18.67;;
21825;SDS011;11075;47.944;11.776;2023-03-01T06:52:30;34.03;;;18.70;;
21825;SDS011;11075;47.944;11.776;2023-03-01T06:54:57;35.73;;;17.63;;
21825;SDS011;11075;47.944;11.776;2023-03-01T06:57:24;33.23;;;17.97;;
21825;SDS011;11075;47.944;11.776;2023-03-01T06:59:51;30.27;;;15.47;;
21825;SDS011;11075;47.944;11.776;2023-03-01T07:02:18;31.03;;;17.67;;
21825;SDS011;11075;47.944;11.776;2023-03-01T07:04:45;41.87;;;18.43;;
21825;SDS011;11075;47.944;11.776;2023-03-01T07:07:12;36.00;;;18.43;;
21825;SDS011;11075;47.944;11.776;2023-03-01T07:09:39;34.90;;;18.00;;
21825;SDS011;11075;47.944;11.776;2023-03-01T07:12:06;39.60;;;19.40;;
21825;SDS011;11075;47.944;11.776;2023-03-01T07:14:34;32.83;;;16.97;;
21825;SDS011;11075;47.944;11.776;2023-03-01T07:17:01;30.07;;;16.80;;
21825;SDS011;11075;47.944;11.776;2023-03-01T07:19:27;32.57;;;16.83;;
21825;SDS011;11075;47.944;11.776;2023-03-01T07:21:54;33.23;;;17.67;;
21825;SDS011;11075;47.944;11.776;2023-03-01T07:24:22;31.93;;;17.70;;
21825;SDS011;11075;47.944;11.776;2023-03-01T07:26:49;33.33;;;17.80;;
21825;SDS011;11075;47.944;11.776;2023-03-01T07:29:17;35.87;;;17.63;;
21825;SDS011;11075;47.944;11.776;2023-03-01T07:31:44;30.03;;;16.10;;
21825;SDS011;11075;47.944;11.776;2023-03-01T07:34:12;30.00;;;16.13;;
21825;SDS011;11075;47.944;11.776;2023-03-01T07:36:39;37.57;;;18.57;;
21825;SDS011;11075;47.944;11.776;2023-03-01T07:39:10;30.77;;;15.57;;
21825;SDS011;11075;47.944;11.776;2023-03-01T07:41:38;29.20;;;12.20;;
21825;SDS011;11075;47.944;11.776;2023-03-01T07:44:05;38.67;;;17.80;;
21825;SDS011;11075;47.944;11.776;2023-03-01T07:46:32;34.40;;;16.97;;
21825;SDS011;11075;47.944;11.776;2023-03-01T07:48:59;28.83;;;16.20;;
21825;SDS011;11075;47.944;11.776;2023-03-01T07:51:26;36.03;;;17.50;;
21825;SDS011;11075;47.944;11.776;2023-03-01T07:53:53;35.37;;;17.47;;
21825;SDS011;11075;47.944;11.776;2023-03-01T07:56:20;26.30;;;14.07;;
21825;SDS011;11075;47.944;11.776;2023-03-01T07:58:48;30.60;;;14.77;;
21825;SDS011;11075;47.944;11.776;2023-03-01T08:01:17;30.87;;;14.63;;
21825;SDS011;11075;47.944;11.776;2023-03-01T08:03:46;29.97;;;15.10;;
21825;SDS011;11075;47.944;11.776;2023-03-01T08:06:14;35.63;;;16.37;;
21825;SDS011;11075;47.944;11.776;2023-03-01T08:08:43;30.83;;;15.87;;
21825;SDS011;11075;47.944;11.776;2023-03-01T08:11:12;32.53;;;16.23;;
21825;SDS011;11075;47.944;11.776;2023-03-01T08:13:42;33.67;;;15.63;;
21825;SDS011;11075;47.944;11.776;2023-03-01T08:16:11;29.37;;;14.27;;
21825;SDS011;11075;47.944;11.776;2023-03-01T08:18:39;33.90;;;16.67;;
21825;SDS011;11075;47.944;11.776;2023-03-01T08:21:08;32.80;;;16.57;;
21825;SDS011;11075;47.944;11.776;2023-03-01T08:23:37;32.67;;;14.83;;
21825;SDS011;11075;47.944;11.776;2023-03-01T08:28:45;37.60;;;17.67;;
21825;SDS011;11075;47.944;11.776;2023-03-01T08:31:13;35.20;;;16.97;;
21825;SDS011;11075;47.944;11.776;2023-03-01T08:33:42;35.20;;;16.30;;
21825;SDS011;11075;47.944;11.776;2023-03-01T08:36:09;32.47;;;16.40;;
21825;SDS011;11075;47.944;11.776;2023-03-01T08:38:36;32.00;;;17.20;;
21825;SDS011;11075;47.944;11.776;2023-03-01T08:41:03;28.63;;;14.97;;
21825;SDS011;11075;47.944;11.776;2023-03-01T08:43:30;38.63;;;18.00;;
21825;SDS011;11075;47.944;11.776;2023-03-01T08:45:57;35.20;;;18.37;;
21825;SDS011;11075;47.944;11.776;2023-03-01T08:48:24;36.97;;;17.60;;
21825;SDS011;11075;47.944;11.776;2023-03-01T08:50:51;32.77;;;15.60;;
21825;SDS011;11075;47.944;11.776;2023-03-01T08:53:18;24.90;;;12.23;;
21825;SDS011;11075;47.944;11.776;2023-03-01T08:55:45;39.77;;;17.77;;
21825;SDS011;11075;47.944;11.776;2023-03-01T08:58:12;33.33;;;17.33;;
21825;SDS011;11075;47.944;11.776;2023-03-01T09:00:39;40.23;;;19.50;;
21825;SDS011;11075;47.944;11.776;2023-03-01T09:03:06;34.97;;;16.20;;
21825;SDS011;11075;47.944;11.776;2023-03-01T09:05:33;32.30;;;17.17;;
21825;SDS011;11075;47.944;11.776;2023-03-01T09:08:00;37.73;;;18.13;;
21825;SDS011;11075;47.944;11.776;2023-03-01T09:10:28;30.03;;;14.37;;
21825;SDS011;11075;47.944;11.776;2023-03-01T09:12:55;29.53;;;15.30;;
21825;SDS011;11075;47.944;11.776;2023-03-01T09:15:22;38.20;;;18.73;;
21825;SDS011;11075;47.944;11.776;2023-03-01T09:17:48;34.57;;;17.80;;
21825;SDS011;11075;47.944;11.776;2023-03-01T09:20:15;31.90;;;16.77;;
21825;SDS011;11075;47.944;11.776;2023-03-01T09:22:43;35.00;;;18.07;;
21825;SDS011;11075;47.944;11.776;2023-03-01T09:25:10;34.13;;;18.10;;
21825;SDS011;11075;47.944;11.776;2023-03-01T09:27:37;30.43;;;16.70;;
21825;SDS011;11075;47.944;11.776;2023-03-01T09:30:04;31.00;;;16.73;;
21825;SDS011;11075;47.944;11.776;2023-03-01T09:32:32;31.37;;;16.70;;
21825;SDS011;11075;47.944;11.776;2023-03-01T09:34:59;33.70;;;17.87;;
21825;SDS011;11075;47.944;11.776;2023-03-01T09:37:32;32.60;;;18.03;;
21825;SDS011;11075;47.944;11.776;2023-03-01T09:39:59;31.37;;;17.17;;
21825;SDS011;11075;47.944;11.776;2023-03-01T09:42:27;39.00;;;18.83;;
21825;SDS011;11075;47.944;11.776;2023-03-01T09:44:59;35.67;;;18.80;;
21825;SDS011;11075;47.944;11.776;2023-03-01T09:47:28;34.67;;;18.17;;
21825;SDS011;11075;47.944;11.776;2023-03-01T09:50:32;35.60;;;18.57;;
21825;SDS011;11075;47.944;11.776;2023-03-01T09:55:38;39.93;;;19.77;;
21825;SDS011;11075;47.944;11.776;2023-03-01T10:01:15;37.27;;;18.67;;
21825;SDS011;11075;47.944;11.776;2023-03-01T10:06:28;32.80;;;17.80;;
21825;SDS011;11075;47.944;11.776;2023-03-01T10:09:08;35.17;;;18.47;;
21825;SDS011;11075;47.944;11.776;2023-03-01T10:11:45;33.60;;;18.17;;
21825;SDS011;11075;47.944;11.776;2023-03-01T10:14:39;37.20;;;18.87;;
21825;SDS011;11075;47.944;11.776;2023-03-01T10:20:17;37.03;;;18.30;;
21825;SDS011;11075;47.944;11.776;2023-03-01T10:22:51;34.33;;;19.10;;
21825;SDS011;11075;47.944;11.776;2023-03-01T10:25:23;41.87;;;20.37;;
21825;SDS011;11075;47.944;11.776;2023-03-01T10:30:44;36.33;;;19.60;;
21825;SDS011;11075;47.944;11.776;2023-03-01T10:33:19;33.97;;;18.63;;
21825;SDS011;11075;47.944;11.776;2023-03-01T10:35:48;33.00;;;18.43;;
21825;SDS011;11075;47.944;11.776;2023-03-01T10:38:16;35.40;;;18.00;;
21825;SDS011;11075;47.944;11.776;2023-03-01T10:40:57;36.93;;;19.73;;
21825;SDS011;11075;47.944;11.776;2023-03-01T10:43:32;35.97;;;19.37;;
21825;SDS011;11075;47.944;11.776;2023-03-01T10:51:47;35.13;;;17.53;;
21825;SDS011;11075;47.944;11.776;2023-03-01T10:54:27;32.07;;;17.60;;
21825;SDS011;11075;47.944;11.776;2023-03-01T10:56:56;31.83;;;17.27;;
21825;SDS011;11075;47.944;11.776;2023-03-01T10:59:26;34.90;;;18.03;;
21825;SDS011;11075;47.944;11.776;2023-03-01T11:05:36;32.57;;;16.40;;
21825;SDS011;11075;47.944;11.776;2023-03-01T11:07:49;29.00;;;14.77;;
21825;SDS011;11075;47.944;11.776;2023-03-01T11:10:26;31.40;;;15.60;;
21825;SDS011;11075;47.944;11.776;2023-03-01T11:13:14;31.80;;;15.37;;
21825;SDS011;11075;47.944;11.776;2023-03-01T11:15:42;31.67;;;16.93;;
21825;SDS011;11075;47.944;11.776;2023-03-01T11:18:31;33.07;;;16.50;;
21825;SDS011;11075;47.944;11.776;2023-03-01T11:21:13;31.17;;;16.20;;
21825;SDS011;11075;47.944;11.776;2023-03-01T11:23:42;29.27;;;16.40;;
21825;SDS011;11075;47.944;11.776;2023-03-01T11:26:12;30.47;;;15.20;;
21825;SDS011;11075;47.944;11.776;2023-03-01T11:28:42;30.87;;;16.77;;
21825;SDS011;11075;47.944;11.776;2023-03-01T11:31:11;35.03;;;17.53;;
21825;SDS011;11075;47.944;11.776;2023-03-01T11:33:53;31.63;;;16.07;;
21825;SDS011;11075;47.944;11.776;2023-03-01T11:36:45;32.97;;;15.60;;
21825;SDS011;11075;47.944;11.776;2023-03-01T11:42:42;31.00;;;17.23;;
21825;SDS011;11075;47.944;11.776;2023-03-01T11:45:13;31.10;;;16.47;;
21825;SDS011;11075;47.944;11.776;2023-03-01T11:50:30;31.30;;;16.57;;
21825;SDS011;11075;47.944;11.776;2023-03-01T11:56:05;31.17;;;16.17;;
21825;SDS011;11075;47.944;11.776;2023-03-01T11:59:19;28.07;;;14.83;;
21825;SDS011;11075;47.944;11.776;2023-03-01T12:15:33;29.63;;;14.47;;
21825;SDS011;11075;47.944;11.776;2023-03-01T12:18:49;34.77;;;15.80;;
21825;SDS011;11075;47.944;11.776;2023-03-01T12:29:41;27.10;;;15.23;;
21825;SDS011;11075;47.944;11.776;2023-03-01T12:35:16;26.03;;;15.23;;
21825;SDS011;11075;47.944;11.776;2023-03-01T12:41:23;32.40;;;15.97;;
21825;SDS011;11075;47.944;11.776;2023-03-01T12:43:58;33.87;;;16.53;;
21825;SDS011;11075;47.944;11.776;2023-03-01T12:49:12;29.20;;;16.47;;
21825;SDS011;11075;47.944;11.776;2023-03-01T12:51:49;29.97;;;16.20;;
21825;SDS011;11075;47.944;11.776;2023-03-01T12:54:30;25.23;;;14.03;;
21825;SDS011;11075;47.944;11.776;2023-03-01T12:57:02;23.63;;;11.97;;
21825;SDS011;11075;47.944;11.776;2023-03-01T12:59:44;28.23;;;15.27;;
21825;SDS011;11075;47.944;11.776;2023-03-01T13:02:36;23.47;;;12.77;;
21825;SDS011;11075;47.944;11.776;2023-03-01T13:08:08;28.93;;;14.70;;
21825;SDS011;11075;47.944;11.776;2023-03-01T13:13:19;28.50;;;15.67;;
21825;SDS011;11075;47.944;11.776;2023-03-01T13:15:48;34.03;;;15.60;;
21825;SDS011;11075;47.944;11.776;2023-03-01T13:33:43;27.87;;;14.80;;
21825;SDS011;11075;47.944;11.776;2023-03-01T13:38:57;30.23;;;16.00;;
21825;SDS011;11075;47.944;11.776;2023-03-01T13:44:12;30.00;;;16.53;;
21825;SDS011;11075;47.944;11.776;2023-03-01T13:49:59;28.20;;;16.10;;
21825;SDS011;11075;47.944;11.776;2023-03-01T13:52:39;30.60;;;17.57;;
21825;SDS011;11075;47.944;11.776;2023-03-01T13:55:27;30.60;;;16.87;;
21825;SDS011;11075;47.944;11.776;2023-03-01T13:58:04;25.33;;;15.70;;
21825;SDS011;11075;47.944;11.776;2023-03-01T14:00:41;29.33;;;17.13;;
21825;SDS011;11075;47.944;11.776;2023-03-01T14:03:18;25.30;;;16.10;;
21825;SDS011;11075;47.944;11.776;2023-03-01T14:08:42;30.07;;;17.23;;
21825;SDS011;11075;47.944;11.776;2023-03-01T14:13:54;29.60;;;16.53;;
21825;SDS011;11075;47.944;11.776;2023-03-01T14:19:43;30.03;;;18.80;;
21825;SDS011;11075;47.944;11.776;2023-03-01T14:24:46;34.00;;;20.57;;
21825;SDS011;11075;47.944;11.776;2023-03-01T14:27:16;27.60;;;14.47;;
21825;SDS011;11075;47.944;11.776;2023-03-01T14:29:44;30.10;;;17.13;;
21825;SDS011;11075;47.944;11.776;2023-03-01T14:32:23;33.23;;;18.07;;
21825;SDS011;11075;47.944;11.776;2023-03-01T14:34:52;34.50;;;19.50;;
21825;SDS011;11075;47.944;11.776;2023-03-01T14:37:22;31.87;;;17.73;;
21825;SDS011;11075;47.944;11.776;2023-03-01T14:39:55;32.30;;;17.93;;
21825;SDS011;11075;47.944;11.776;2023-03-01T14:42:23;34.00;;;19.77;;
21825;SDS011;11075;47.944;11.776;2023-03-01T14:44:54;34.70;;;20.00;;
21825;SDS011;11075;47.944;11.776;2023-03-01T14:47:33;31.27;;;17.97;;
21825;SDS011;11075;47.944;11.776;2023-03-01T14:50:07;30.53;;;18.17;;
21825;SDS011;11075;47.944;11.776;2023-03-01T14:52:54;28.40;;;16.77;;
21825;SDS011;11075;47.944;11.776;2023-03-01T14:55:30;33.87;;;20.93;;
21825;SDS011;11075;47.944;11.776;2023-03-01T14:58:04;36.33;;;20.03;;
21825;SDS011;11075;47.944;11.776;2023-03-01T15:00:33;30.03;;;19.13;;
21825;SDS011;11075;47.944;11.776;2023-03-01T15:03:05;34.00;;;20.13;;
21825;SDS011;11075;47.944;11.776;2023-03-01T15:05:44;37.77;;;22.20;;
21825;SDS011;11075;47.944;11.776;2023-03-01T15:08:18;33.17;;;19.90;;
21825;SDS011;11075;47.944;11.776;2023-03-01T15:10:57;37.87;;;21.47;;
21825;SDS011;11075;47.944;11.776;2023-03-01T15:13:45;39.17;;;21.70;;
21825;SDS011;11075;47.944;11.776;2023-03-01T15:16:14;44.80;;;27.33;;
21825;SDS011;11075;47.944;11.776;2023-03-01T15:18:47;31.50;;;19.77;;
21825;SDS011;11075;47.944;11.776;2023-03-01T15:21:25;28.67;;;18.63;;
21825;SDS011;11075;47.944;11.776;2023-03-01T15:26:33;33.20;;;19.17;;
21825;SDS011;11075;47.944;11.776;2023-03-01T15:29:04;31.77;;;19.23;;
21825;SDS011;11075;47.944;11.776;2023-03-01T15:31:32;33.17;;;18.90;;
21825;SDS011;11075;47.944;11.776;2023-03-01T15:34:21;33.00;;;19.50;;
21825;SDS011;11075;47.944;11.776;2023-03-01T15:36:57;34.80;;;19.13;;
21825;SDS011;11075;47.944;11.776;2023-03-01T15:39:34;32.37;;;18.57;;
21825;SDS011;11075;47.944;11.776;2023-03-01T15:42:08;34.80;;;20.20;;
21825;SDS011;11075;47.944;11.776;2023-03-01T15:44:40;36.03;;;18.27;;
21825;SDS011;11075;47.944;11.776;2023-03-01T15:47:23;35.93;;;18.43;;
21825;SDS011;11075;47.944;11.776;2023-03-01T15:49:53;35.30;;;20.23;;
21825;SDS011;11075;47.944;11.776;2023-03-01T15:52:26;41.80;;;22.93;;
21825;SDS011;11075;47.944;11.776;2023-03-01T15:55:01;40.80;;;21.67;;
21825;SDS011;11075;47.944;11.776;2023-03-01T15:57:30;49.63;;;26.27;;
21825;SDS011;11075;47.944;11.776;2023-03-01T15:59:57;42.00;;;21.67;;
21825;SDS011;11075;47.944;11.776;2023-03-01T16:02:23;64.70;;;31.90;;
21825;SDS011;11075;47.944;11.776;2023-03-01T16:04:51;54.90;;;27.17;;
21825;SDS011;11075;47.944;11.776;2023-03-01T16:07:18;71.77;;;30.07;;
21825;SDS011;11075;47.944;11.776;2023-03-01T16:09:45;73.13;;;30.50;;
21825;SDS011;11075;47.944;11.776;2023-03-01T16:12:15;63.60;;;27.70;;
21825;SDS011;11075;47.944;11.776;2023-03-01T16:14:43;46.53;;;23.27;;
21825;SDS011;11075;47.944;11.776;2023-03-01T16:17:10;36.23;;;18.90;;
21825;SDS011;11075;47.944;11.776;2023-03-01T16:19:37;36.57;;;19.27;;
21825;SDS011;11075;47.944;11.776;2023-03-01T16:22:04;37.07;;;18.50;;
21825;SDS011;11075;47.944;11.776;2023-03-01T16:24:31;38.60;;;19.53;;
21825;SDS011;11075;47.944;11.776;2023-03-01T16:26:59;36.80;;;19.07;;